sensor_id;sensor_type;location;lat;lon;timestamp;P1;durP1;ratioP1;P2;durP2;ratioP2
68357;SDS011;55276;53.260;50.222;2022-10-28T07:47:23;9.88;;;4.40;;
68357;SDS011;55276;53.260;50.222;2022-10-28T07:50:00;12.05;;;4.10;;
68357;SDS011;55276;53.260;50.222;2022-10-28T07:52:46;8.93;;;4.13;;
68357;SDS011;55276;53.260;50.222;2022-10-28T07:56:57;14.43;;;4.10;;
68357;SDS011;55276;53.260;50.222;2022-10-28T07:59:28;13.27;;;4.53;;
68357;SDS011;55276;53.260;50.222;2022-10-28T08:02:21;9.13;;;3.53;;
68357;SDS011;55276;53.260;50.222;2022-10-28T08:08:36;12.20;;;4.65;;
68357;SDS011;55276;53.260;50.222;2022-10-28T08:11:15;13.15;;;4.30;;
68357;SDS011;55276;53.260;50.222;2022-10-28T08:13:53;8.70;;;3.90;;
68357;SDS011;55276;53.260;50.222;2022-10-28T08:16:33;21.38;;;4.25;;
68357;SDS011;55276;53.260;50.222;2022-10-28T08:19:09;11.57;;;4.10;;
68357;SDS011;55276;53.260;50.222;2022-10-28T08:21:43;10.25;;;3.80;;
68357;SDS011;55276;53.260;50.222;2022-10-28T08:27:17;13.77;;;4.20;;
68357;SDS011;55276;53.260;50.222;2022-10-28T08:29:56;10.20;;;3.60;;
68357;SDS011;55276;53.260;50.222;2022-10-28T08:32:37;8.23;;;3.33;;
68357;SDS011;55276;53.260;50.222;2022-10-28T08:35:32;15.43;;;3.67;;
68357;SDS011;55276;53.260;50.222;2022-10-28T08:38:02;15.57;;;3.75;;
68357;SDS011;55276;53.260;50.222;2022-10-28T08:40:36;9.88;;;3.97;;
68357;SDS011;55276;53.260;50.222;2022-10-28T08:49:15;11.82;;;4.20;;
68357;SDS011;55276;53.260;50.222;2022-10-28T08:54:52;20.48;;;4.97;;
68357;SDS011;55276;53.260;50.222;2022-10-28T08:57:32;16.80;;;4.45;;
68357;SDS011;55276;53.260;50.222;2022-10-28T09:00:07;19.02;;;4.30;;
68357;SDS011;55276;53.260;50.222;2022-10-28T09:05:45;15.90;;;4.18;;
68357;SDS011;55276;53.260;50.222;2022-10-28T09:08:19;11.73;;;4.10;;
68357;SDS011;55276;53.260;50.222;2022-10-28T09:13:48;15.60;;;4.75;;
68357;SDS011;55276;53.260;50.222;2022-10-28T09:16:39;15.90;;;4.15;;
68357;SDS011;55276;53.260;50.222;2022-10-28T10:06:35;14.25;;;4.32;;
68357;SDS011;55276;53.260;50.222;2022-10-28T10:28:14;11.20;;;4.15;;
68357;SDS011;55276;53.260;50.222;2022-10-28T10:31:02;19.33;;;4.45;;
68357;SDS011;55276;53.260;50.222;2022-10-28T10:36:04;14.95;;;4.20;;
68357;SDS011;55276;53.260;50.222;2022-10-28T11:25:22;15.32;;;3.38;;
68357;SDS011;55276;53.260;50.222;2022-10-28T11:35:37;9.43;;;3.22;;
68357;SDS011;55276;53.260;50.222;2022-10-28T11:55:57;10.38;;;3.80;;
68357;SDS011;55276;53.260;50.222;2022-10-28T12:01:32;9.63;;;3.70;;
68357;SDS011;55276;53.260;50.222;2022-10-28T12:18:41;13.60;;;3.75;;
68357;SDS011;55276;53.260;50.222;2022-10-28T12:28:51;8.15;;;3.75;;
68357;SDS011;55276;53.260;50.222;2022-10-28T12:31:44;14.38;;;4.45;;
68357;SDS011;55276;53.260;50.222;2022-10-28T12:34:44;10.82;;;4.07;;
68357;SDS011;55276;53.260;50.222;2022-10-28T12:37:26;8.88;;;4.05;;
68357;SDS011;55276;53.260;50.222;2022-10-28T12:44:36;10.65;;;4.15;;
68357;SDS011;55276;53.260;50.222;2022-10-28T13:00:46;10.23;;;4.82;;
68357;SDS011;55276;53.260;50.222;2022-10-28T13:26:40;10.00;;;5.50;;
68357;SDS011;55276;53.260;50.222;2022-10-28T13:33:16;14.48;;;5.85;;
68357;SDS011;55276;53.260;50.222;2022-10-28T13:35:50;11.30;;;5.82;;
68357;SDS011;55276;53.260;50.222;2022-10-28T13:38:20;13.98;;;6.10;;
68357;SDS011;55276;53.260;50.222;2022-10-28T13:52:33;15.50;;;5.57;;
68357;SDS011;55276;53.260;50.222;2022-10-28T13:58:02;7.22;;;4.10;;
68357;SDS011;55276;53.260;50.222;2022-10-28T14:02:59;10.48;;;4.85;;
68357;SDS011;55276;53.260;50.222;2022-10-28T14:08:03;12.52;;;5.45;;
68357;SDS011;55276;53.260;50.222;2022-10-28T14:10:32;12.27;;;5.43;;
68357;SDS011;55276;53.260;50.222;2022-10-28T14:13:05;9.55;;;5.15;;
68357;SDS011;55276;53.260;50.222;2022-10-28T14:15:42;11.23;;;5.05;;
68357;SDS011;55276;53.260;50.222;2022-10-28T14:50:27;13.32;;;5.60;;
68357;SDS011;55276;53.260;50.222;2022-10-28T14:53:24;13.70;;;5.55;;
68357;SDS011;55276;53.260;50.222;2022-10-28T14:59:39;14.68;;;5.15;;
68357;SDS011;55276;53.260;50.222;2022-10-28T15:07:55;13.10;;;5.90;;
68357;SDS011;55276;53.260;50.222;2022-10-28T15:10:32;18.02;;;5.75;;
68357;SDS011;55276;53.260;50.222;2022-10-28T15:13:19;18.63;;;6.13;;
68357;SDS011;55276;53.260;50.222;2022-10-28T15:16:21;17.23;;;7.15;;
68357;SDS011;55276;53.260;50.222;2022-10-28T15:26:28;23.42;;;10.52;;
68357;SDS011;55276;53.260;50.222;2022-10-28T15:33:20;24.40;;;11.15;;
68357;SDS011;55276;53.260;50.222;2022-10-28T15:38:47;19.77;;;8.57;;
68357;SDS011;55276;53.260;50.222;2022-10-28T15:43:52;22.38;;;8.45;;
68357;SDS011;55276;53.260;50.222;2022-10-28T15:51:18;13.30;;;6.15;;
68357;SDS011;55276;53.260;50.222;2022-10-28T16:03:49;27.92;;;6.25;;
68357;SDS011;55276;53.260;50.222;2022-10-28T16:06:21;15.52;;;6.00;;
68357;SDS011;55276;53.260;50.222;2022-10-28T16:09:03;16.15;;;6.07;;
68357;SDS011;55276;53.260;50.222;2022-10-28T16:11:49;15.00;;;6.00;;
68357;SDS011;55276;53.260;50.222;2022-10-28T16:17:16;14.00;;;6.25;;
68357;SDS011;55276;53.260;50.222;2022-10-28T16:19:48;18.45;;;6.57;;
68357;SDS011;55276;53.260;50.222;2022-10-28T16:22:15;17.75;;;5.88;;
68357;SDS011;55276;53.260;50.222;2022-10-28T16:24:42;20.93;;;6.80;;
68357;SDS011;55276;53.260;50.222;2022-10-28T16:29:43;19.70;;;6.28;;
68357;SDS011;55276;53.260;50.222;2022-10-28T16:32:10;14.05;;;5.80;;
68357;SDS011;55276;53.260;50.222;2022-10-28T16:34:38;16.27;;;5.75;;
68357;SDS011;55276;53.260;50.222;2022-10-28T16:37:27;16.80;;;6.30;;
68357;SDS011;55276;53.260;50.222;2022-10-28T16:39:52;18.45;;;6.50;;
68357;SDS011;55276;53.260;50.222;2022-10-28T16:42:19;15.37;;;6.30;;
68357;SDS011;55276;53.260;50.222;2022-10-28T16:44:46;18.95;;;6.80;;
68357;SDS011;55276;53.260;50.222;2022-10-28T16:47:13;19.88;;;7.88;;
68357;SDS011;55276;53.260;50.222;2022-10-28T16:49:41;18.48;;;8.13;;
68357;SDS011;55276;53.260;50.222;2022-10-28T16:54:47;21.40;;;7.85;;
68357;SDS011;55276;53.260;50.222;2022-10-28T16:57:14;14.88;;;7.22;;
68357;SDS011;55276;53.260;50.222;2022-10-28T16:59:42;18.67;;;6.90;;
68357;SDS011;55276;53.260;50.222;2022-10-28T17:02:13;22.05;;;7.53;;
68357;SDS011;55276;53.260;50.222;2022-10-28T17:04:55;21.45;;;5.78;;
68357;SDS011;55276;53.260;50.222;2022-10-28T17:07:22;16.77;;;5.50;;
68357;SDS011;55276;53.260;50.222;2022-10-28T17:09:51;17.30;;;5.88;;
68357;SDS011;55276;53.260;50.222;2022-10-28T17:12:21;16.35;;;6.07;;
68357;SDS011;55276;53.260;50.222;2022-10-28T17:14:51;15.43;;;6.05;;
68357;SDS011;55276;53.260;50.222;2022-10-28T17:17:17;21.13;;;6.38;;
68357;SDS011;55276;53.260;50.222;2022-10-28T17:19:44;20.50;;;6.45;;
68357;SDS011;55276;53.260;50.222;2022-10-28T17:22:11;17.70;;;5.75;;
68357;SDS011;55276;53.260;50.222;2022-10-28T17:24:37;13.05;;;6.20;;
68357;SDS011;55276;53.260;50.222;2022-10-28T17:27:04;13.38;;;6.97;;
68357;SDS011;55276;53.260;50.222;2022-10-28T17:29:30;19.92;;;6.93;;
68357;SDS011;55276;53.260;50.222;2022-10-28T17:31:56;15.73;;;5.88;;
68357;SDS011;55276;53.260;50.222;2022-10-28T17:34:23;17.13;;;6.57;;
68357;SDS011;55276;53.260;50.222;2022-10-28T17:36:49;13.93;;;6.30;;
68357;SDS011;55276;53.260;50.222;2022-10-28T17:39:15;16.35;;;6.95;;
68357;SDS011;55276;53.260;50.222;2022-10-28T17:41:41;19.10;;;6.53;;
68357;SDS011;55276;53.260;50.222;2022-10-28T17:44:07;17.63;;;6.43;;
68357;SDS011;55276;53.260;50.222;2022-10-28T17:46:33;18.23;;;6.57;;
68357;SDS011;55276;53.260;50.222;2022-10-28T17:49:00;21.15;;;6.72;;
68357;SDS011;55276;53.260;50.222;2022-10-28T17:51:35;16.42;;;6.55;;
68357;SDS011;55276;53.260;50.222;2022-10-28T17:54:03;16.27;;;6.32;;
68357;SDS011;55276;53.260;50.222;2022-10-28T17:56:30;16.30;;;6.65;;
68357;SDS011;55276;53.260;50.222;2022-10-28T17:58:57;20.75;;;6.38;;
68357;SDS011;55276;53.260;50.222;2022-10-28T18:01:31;13.63;;;6.03;;
68357;SDS011;55276;53.260;50.222;2022-10-28T18:04:03;18.05;;;6.38;;
68357;SDS011;55276;53.260;50.222;2022-10-28T18:06:30;9.88;;;4.93;;
68357;SDS011;55276;53.260;50.222;2022-10-28T18:08:56;11.75;;;5.22;;
68357;SDS011;55276;53.260;50.222;2022-10-28T18:11:25;11.23;;;5.22;;
68357;SDS011;55276;53.260;50.222;2022-10-28T18:13:52;11.60;;;5.13;;
68357;SDS011;55276;53.260;50.222;2022-10-28T18:16:24;11.95;;;5.55;;
68357;SDS011;55276;53.260;50.222;2022-10-28T18:18:52;12.50;;;5.13;;
68357;SDS011;55276;53.260;50.222;2022-10-28T18:23:53;9.70;;;4.43;;
68357;SDS011;55276;53.260;50.222;2022-10-28T18:26:28;11.90;;;5.00;;
68357;SDS011;55276;53.260;50.222;2022-10-28T18:28:56;10.52;;;4.70;;
68357;SDS011;55276;53.260;50.222;2022-10-28T18:31:22;10.48;;;4.68;;
68357;SDS011;55276;53.260;50.222;2022-10-28T18:33:48;9.80;;;4.97;;
68357;SDS011;55276;53.260;50.222;2022-10-28T18:36:15;11.27;;;4.72;;
68357;SDS011;55276;53.260;50.222;2022-10-28T18:38:49;12.60;;;5.00;;
68357;SDS011;55276;53.260;50.222;2022-10-28T18:41:23;13.85;;;4.82;;
68357;SDS011;55276;53.260;50.222;2022-10-28T18:43:58;13.85;;;5.07;;
68357;SDS011;55276;53.260;50.222;2022-10-28T18:46:27;10.02;;;4.93;;
68357;SDS011;55276;53.260;50.222;2022-10-28T18:48:56;13.10;;;5.22;;
68357;SDS011;55276;53.260;50.222;2022-10-28T18:51:23;15.00;;;6.30;;
68357;SDS011;55276;53.260;50.222;2022-10-28T18:53:49;8.65;;;4.68;;
68357;SDS011;55276;53.260;50.222;2022-10-28T18:56:22;10.40;;;5.20;;
68357;SDS011;55276;53.260;50.222;2022-10-28T18:58:50;11.43;;;5.07;;
68357;SDS011;55276;53.260;50.222;2022-10-28T19:01:17;13.38;;;5.35;;
68357;SDS011;55276;53.260;50.222;2022-10-28T19:04:00;9.98;;;5.40;;
68357;SDS011;55276;53.260;50.222;2022-10-28T19:06:29;10.88;;;4.85;;
68357;SDS011;55276;53.260;50.222;2022-10-28T19:08:57;10.80;;;5.20;;
68357;SDS011;55276;53.260;50.222;2022-10-28T19:11:25;12.18;;;5.65;;
68357;SDS011;55276;53.260;50.222;2022-10-28T19:13:56;10.05;;;5.10;;
68357;SDS011;55276;53.260;50.222;2022-10-28T19:16:23;8.05;;;4.70;;
68357;SDS011;55276;53.260;50.222;2022-10-28T19:18:57;9.75;;;5.32;;
68357;SDS011;55276;53.260;50.222;2022-10-28T19:21:24;9.57;;;5.13;;
68357;SDS011;55276;53.260;50.222;2022-10-28T19:26:18;17.05;;;6.38;;
68357;SDS011;55276;53.260;50.222;2022-10-28T19:28:46;11.48;;;5.78;;
68357;SDS011;55276;53.260;50.222;2022-10-28T19:31:14;9.85;;;5.38;;
68357;SDS011;55276;53.260;50.222;2022-10-28T19:33:42;13.10;;;5.68;;
68357;SDS011;55276;53.260;50.222;2022-10-28T19:36:16;11.90;;;4.93;;
68357;SDS011;55276;53.260;50.222;2022-10-28T19:38:51;10.52;;;5.10;;
68357;SDS011;55276;53.260;50.222;2022-10-28T19:41:22;11.32;;;5.60;;
68357;SDS011;55276;53.260;50.222;2022-10-28T19:43:56;11.32;;;5.07;;
68357;SDS011;55276;53.260;50.222;2022-10-28T19:46:24;12.27;;;5.22;;
68357;SDS011;55276;53.260;50.222;2022-10-28T19:48:52;14.02;;;5.65;;
68357;SDS011;55276;53.260;50.222;2022-10-28T19:51:24;15.10;;;5.60;;
68357;SDS011;55276;53.260;50.222;2022-10-28T19:53:53;11.02;;;5.03;;
68357;SDS011;55276;53.260;50.222;2022-10-28T19:56:25;14.13;;;5.03;;
68357;SDS011;55276;53.260;50.222;2022-10-28T19:58:53;11.32;;;5.53;;
68357;SDS011;55276;53.260;50.222;2022-10-28T20:01:22;10.63;;;5.07;;
68357;SDS011;55276;53.260;50.222;2022-10-28T20:06:17;16.00;;;5.95;;
68357;SDS011;55276;53.260;50.222;2022-10-28T20:08:44;11.35;;;5.07;;
68357;SDS011;55276;53.260;50.222;2022-10-28T20:11:12;12.85;;;6.30;;
68357;SDS011;55276;53.260;50.222;2022-10-28T20:13:40;14.93;;;6.10;;
68357;SDS011;55276;53.260;50.222;2022-10-28T20:16:08;13.25;;;6.20;;
68357;SDS011;55276;53.260;50.222;2022-10-28T20:18:36;14.40;;;6.45;;
68357;SDS011;55276;53.260;50.222;2022-10-28T20:21:08;14.88;;;5.88;;
68357;SDS011;55276;53.260;50.222;2022-10-28T20:23:44;13.98;;;5.45;;
68357;SDS011;55276;53.260;50.222;2022-10-28T20:26:37;10.07;;;5.78;;
68357;SDS011;55276;53.260;50.222;2022-10-28T20:29:04;9.73;;;5.10;;
68357;SDS011;55276;53.260;50.222;2022-10-28T20:31:34;11.15;;;5.15;;
68357;SDS011;55276;53.260;50.222;2022-10-28T20:34:01;11.27;;;5.93;;
68357;SDS011;55276;53.260;50.222;2022-10-28T20:36:29;10.05;;;5.32;;
68357;SDS011;55276;53.260;50.222;2022-10-28T20:39:04;13.07;;;5.45;;
68357;SDS011;55276;53.260;50.222;2022-10-28T20:41:33;12.52;;;5.90;;
68357;SDS011;55276;53.260;50.222;2022-10-28T20:44:01;12.73;;;5.88;;
68357;SDS011;55276;53.260;50.222;2022-10-28T20:46:28;12.27;;;5.80;;
68357;SDS011;55276;53.260;50.222;2022-10-28T20:48:54;11.85;;;5.53;;
68357;SDS011;55276;53.260;50.222;2022-10-28T20:51:21;12.77;;;5.82;;
68357;SDS011;55276;53.260;50.222;2022-10-28T20:56:15;10.68;;;5.47;;
68357;SDS011;55276;53.260;50.222;2022-10-28T20:58:46;10.23;;;5.53;;
68357;SDS011;55276;53.260;50.222;2022-10-28T21:01:20;12.55;;;5.63;;
68357;SDS011;55276;53.260;50.222;2022-10-28T21:03:53;9.98;;;5.32;;
68357;SDS011;55276;53.260;50.222;2022-10-28T21:06:21;16.33;;;5.90;;
68357;SDS011;55276;53.260;50.222;2022-10-28T21:08:47;11.98;;;5.28;;
68357;SDS011;55276;53.260;50.222;2022-10-28T21:11:14;10.80;;;5.60;;
68357;SDS011;55276;53.260;50.222;2022-10-28T21:13:42;11.23;;;5.93;;
68357;SDS011;55276;53.260;50.222;2022-10-28T21:16:10;12.15;;;5.88;;
68357;SDS011;55276;53.260;50.222;2022-10-28T21:18:37;11.80;;;5.78;;
68357;SDS011;55276;53.260;50.222;2022-10-28T21:21:04;12.55;;;5.80;;
68357;SDS011;55276;53.260;50.222;2022-10-28T21:23:31;11.82;;;6.30;;
68357;SDS011;55276;53.260;50.222;2022-10-28T21:25:58;12.77;;;6.00;;
68357;SDS011;55276;53.260;50.222;2022-10-28T21:28:26;13.35;;;6.75;;
68357;SDS011;55276;53.260;50.222;2022-10-28T21:30:58;12.30;;;6.50;;
68357;SDS011;55276;53.260;50.222;2022-10-28T21:33:25;11.73;;;6.47;;
68357;SDS011;55276;53.260;50.222;2022-10-28T21:35:55;14.27;;;6.50;;
68357;SDS011;55276;53.260;50.222;2022-10-28T21:38:23;15.43;;;6.80;;
68357;SDS011;55276;53.260;50.222;2022-10-28T21:43:53;14.80;;;7.78;;
68357;SDS011;55276;53.260;50.222;2022-10-28T21:46:19;14.43;;;6.78;;
68357;SDS011;55276;53.260;50.222;2022-10-28T21:48:46;11.75;;;6.57;;
68357;SDS011;55276;53.260;50.222;2022-10-28T21:51:13;13.00;;;7.05;;
68357;SDS011;55276;53.260;50.222;2022-10-28T21:53:40;13.88;;;7.30;;
68357;SDS011;55276;53.260;50.222;2022-10-28T21:56:11;14.30;;;7.05;;
68357;SDS011;55276;53.260;50.222;2022-10-28T21:58:39;12.63;;;7.13;;
68357;SDS011;55276;53.260;50.222;2022-10-28T22:01:09;11.98;;;6.82;;
68357;SDS011;55276;53.260;50.222;2022-10-28T22:03:37;12.50;;;7.00;;
68357;SDS011;55276;53.260;50.222;2022-10-28T22:06:05;12.88;;;7.55;;
68357;SDS011;55276;53.260;50.222;2022-10-28T22:08:32;13.50;;;7.55;;
68357;SDS011;55276;53.260;50.222;2022-10-28T22:13:29;13.27;;;7.47;;
68357;SDS011;55276;53.260;50.222;2022-10-28T22:16:05;13.32;;;7.32;;
68357;SDS011;55276;53.260;50.222;2022-10-28T22:21:04;17.75;;;8.52;;
68357;SDS011;55276;53.260;50.222;2022-10-28T22:23:31;15.57;;;7.75;;
68357;SDS011;55276;53.260;50.222;2022-10-28T22:26:01;13.98;;;7.35;;
68357;SDS011;55276;53.260;50.222;2022-10-28T22:28:31;13.05;;;7.35;;
68357;SDS011;55276;53.260;50.222;2022-10-28T22:30:58;14.07;;;7.38;;
68357;SDS011;55276;53.260;50.222;2022-10-28T22:33:26;15.23;;;7.20;;
68357;SDS011;55276;53.260;50.222;2022-10-28T22:35:56;13.45;;;7.05;;
68357;SDS011;55276;53.260;50.222;2022-10-28T22:38:27;14.50;;;7.10;;
68357;SDS011;55276;53.260;50.222;2022-10-28T22:41:06;13.88;;;7.07;;
68357;SDS011;55276;53.260;50.222;2022-10-28T22:43:36;15.13;;;7.72;;
68357;SDS011;55276;53.260;50.222;2022-10-28T22:46:03;13.68;;;7.03;;
68357;SDS011;55276;53.260;50.222;2022-10-28T22:48:30;13.83;;;7.53;;
68357;SDS011;55276;53.260;50.222;2022-10-28T22:50:57;11.45;;;7.00;;
68357;SDS011;55276;53.260;50.222;2022-10-28T22:53:24;13.57;;;7.18;;
68357;SDS011;55276;53.260;50.222;2022-10-28T22:55:51;14.15;;;7.05;;
68357;SDS011;55276;53.260;50.222;2022-10-28T22:58:18;13.75;;;7.45;;
68357;SDS011;55276;53.260;50.222;2022-10-28T23:00:45;13.07;;;7.38;;
68357;SDS011;55276;53.260;50.222;2022-10-28T23:03:12;14.38;;;7.63;;
68357;SDS011;55276;53.260;50.222;2022-10-28T23:05:39;13.45;;;7.13;;
68357;SDS011;55276;53.260;50.222;2022-10-28T23:08:05;11.85;;;6.35;;
68357;SDS011;55276;53.260;50.222;2022-10-28T23:10:32;12.13;;;6.15;;
68357;SDS011;55276;53.260;50.222;2022-10-28T23:12:58;12.25;;;6.35;;
68357;SDS011;55276;53.260;50.222;2022-10-28T23:15:25;10.95;;;5.60;;
68357;SDS011;55276;53.260;50.222;2022-10-28T23:17:52;10.03;;;5.80;;
68357;SDS011;55276;53.260;50.222;2022-10-28T23:20:19;9.25;;;5.38;;
68357;SDS011;55276;53.260;50.222;2022-10-28T23:22:46;13.02;;;6.10;;
68357;SDS011;55276;53.260;50.222;2022-10-28T23:25:12;10.30;;;5.40;;
68357;SDS011;55276;53.260;50.222;2022-10-28T23:27:42;10.80;;;5.72;;
68357;SDS011;55276;53.260;50.222;2022-10-28T23:30:09;11.50;;;5.80;;
68357;SDS011;55276;53.260;50.222;2022-10-28T23:32:37;10.70;;;5.82;;
68357;SDS011;55276;53.260;50.222;2022-10-28T23:35:04;11.98;;;5.82;;
68357;SDS011;55276;53.260;50.222;2022-10-28T23:37:31;10.57;;;5.78;;
68357;SDS011;55276;53.260;50.222;2022-10-28T23:39:58;11.32;;;5.68;;
68357;SDS011;55276;53.260;50.222;2022-10-28T23:42:24;10.63;;;5.72;;
68357;SDS011;55276;53.260;50.222;2022-10-28T23:44:50;11.02;;;5.88;;
68357;SDS011;55276;53.260;50.222;2022-10-28T23:47:16;11.45;;;5.90;;
68357;SDS011;55276;53.260;50.222;2022-10-28T23:49:42;13.52;;;6.38;;
68357;SDS011;55276;53.260;50.222;2022-10-28T23:52:08;14.30;;;6.75;;
68357;SDS011;55276;53.260;50.222;2022-10-28T23:54:34;14.65;;;6.60;;
68357;SDS011;55276;53.260;50.222;2022-10-28T23:57:01;12.80;;;6.75;;
68357;SDS011;55276;53.260;50.222;2022-10-28T23:59:28;12.52;;;6.32;;
